Nearby METAR Reports

 

KISP - Islip, New York, USA
Distance from station: SW 4mi, 6km
Updated: Sun, 09/27/2020 7:20 pm EDT
Mostly cloudy
Mostly cloudy
 Wind from ESE
Wind: ESE 6 mph , 9 km/h
Temperature: 72°F , 22°C
Dew Point: 70°F , 21°C
Humidity: 94%
Barometer: 29.94 inHg , 1013.9 hPa
Clouds: Mostly cloudy
Visibility: 10 miles , 16 km
Cloud details: Partly cloudy 700 ft
Partly cloudy 2200 ft
Mostly cloudy 4900 ft
2020/09/27 23:20 KISP 272320Z 12005KT 10SM SCT007 SCT022 BKN049 22/21 A2994 RMK AO2 T02170206
KHWV - Shirley, New York, USA
Distance from station: E 10mi, 16km
Updated: Sun, 09/27/2020 7:08 pm EDT
Mostly cloudy
Mostly cloudy
 Wind from varies
Wind: varies 5 mph , 7 km/h
Temperature: 72°F , 22°C
Dew Point: 66°F , 19°C
Humidity: 83%
Barometer: 29.95 inHg , 1014.2 hPa
Clouds: Mostly cloudy
Visibility: 10 miles , 16 km
Cloud details: Few Clouds 600 ft
Mostly cloudy 2600 ft
2020/09/27 23:08 KHWV 272308Z AUTO VRB04KT 10SM FEW006 BKN026 22/19 A2995 RMK AO2 T02220194
 
KFRG - Farmingdale, New York, USA
Distance from station: WSW 20mi, 33km
Updated: Sun, 09/27/2020 6:53 pm EDT
Overcast
Overcast
 Wind from ESE
Wind: ESE 6 mph , 9 km/h
Temperature: 72°F , 22°C
Dew Point: 68°F , 20°C
Humidity: 88%
Barometer: 29.94 inHg , 1013.9 hPa
Clouds: Overcast
Visibility: 10 miles , 16 km
Cloud details: Few Clouds 800 ft
Overcast 4200 ft
2020/09/27 22:53 KFRG 272253Z AUTO 11005KT 10SM FEW008 OVC042 22/20 A2994 RMK AO2 SLP138 T02220200
KBDR - Bridgeport, Connecticut, USA
Distance from station: N 23mi, 37km
Updated: Sun, 09/27/2020 6:52 pm EDT
Partly cloudy
Partly cloudy
 Wind from SE
Wind: SE 8 mph , 13 km/h
Temperature: 73°F , 23°C
Dew Point: 70°F , 21°C
Humidity: 89%
Barometer: 29.94 inHg , 1013.9 hPa
Clouds: Partly cloudy
Visibility: 10 miles , 16 km
Cloud details: Few Clouds 4000 ft
Partly cloudy 4900 ft
2020/09/27 22:52 KBDR 272252Z 13007KT 10SM FEW040 SCT049 23/21 A2994 RMK AO2 SLP139 T02280206
 
KFOK - Westhampton Beac, New York, USA
Distance from station: E 23mi, 37km
Updated: Sun, 09/27/2020 6:53 pm EDT
Partly cloudy
Partly cloudy
 Wind from E
Wind: E 5 mph , 7 km/h
Temperature: 70°F , 21°C
Dew Point: 68°F , 20°C
Humidity: 94%
Barometer: 29.97 inHg , 1014.9 hPa
Clouds: Partly cloudy
Visibility: 10 miles , 16 km
Cloud details: Partly cloudy 500 ft
Partly cloudy 3000 ft
2020/09/27 22:53 KFOK 272253Z 10004KT 10SM SCT005 SCT030 21/20 A2997 RMK AO2 SLP147 T02110200
KHVN - New Haven/Tweed, Connecticut, USA
Distance from station: NNE 31mi, 50km
Updated: Sun, 09/27/2020 6:53 pm EDT
Overcast
Overcast
 Wind from SE
Wind: SE 5 mph , 7 km/h
Temperature: 73°F , 23°C
Dew Point: 70°F , 21°C
Humidity: 89%
Barometer: 29.95 inHg , 1014.2 hPa
Clouds: Overcast
Visibility: 9 miles , 14 km
Cloud details: Mostly cloudy 4000 ft
Overcast 5000 ft
2020/09/27 22:53 KHVN 272253Z 13004KT 9SM BKN040 OVC050 23/21 A2995 RMK AO2 SLP142 T02280211
 
KHPN - White Plains, New York, USA
Distance from station: WNW 37mi, 60km
Updated: Sun, 09/27/2020 6:56 pm EDT
Light rain, Mostly cloudy
Light rain, Mostly cloudy
 Wind from E
Wind: E 3 mph , 6 km/h
Temperature: 72°F , 22°C
Dew Point: 66°F , 19°C
Humidity: 83%
Barometer: 29.94 inHg , 1013.9 hPa
Summary: Light rain
Clouds: Mostly cloudy
Visibility: 10 miles , 16 km
Cloud details: Mostly cloudy 1400 ft
Mostly cloudy 2700 ft
2020/09/27 22:56 KHPN 272256Z 10003KT 10SM -RA BKN014 BKN027 22/19 A2994 RMK AO2 RAB11E29B52 SLP136 P0000 T02170194
KJFK - Nyc/Jfk Arpt, New York, USA
Distance from station: WSW 40mi, 64km
Updated: Sun, 09/27/2020 6:51 pm EDT
Overcast
Overcast
 Wind from ESE
Wind: ESE 9 mph , 15 km/h
Temperature: 72°F , 22°C
Dew Point: 70°F , 21°C
Humidity: 94%
Barometer: 29.94 inHg , 1013.9 hPa
Clouds: Overcast
Visibility: 10 miles , 16 km
Cloud details: Few Clouds 2500 ft
Overcast 4200 ft
2020/09/27 22:51 KJFK 272251Z 11008KT 10SM FEW025 OVC042 22/21 A2994 RMK AO2 SLP137 T02220206 $
 
KDXR - Danbury, Connecticut, USA
Distance from station: NNW 42mi, 68km
Updated: Sun, 09/27/2020 6:53 pm EDT
Overcast
Overcast
 Wind from SSE
Wind: SSE 5 mph , 7 km/h
Temperature: 72°F , 22°C
Dew Point: 66°F , 19°C
Humidity: 83%
Barometer: 29.97 inHg , 1014.9 hPa
Clouds: Overcast
Visibility: 10 miles , 16 km
Cloud details: Mostly cloudy 1400 ft
Overcast 2100 ft
2020/09/27 22:53 KDXR 272253Z 15004KT 10SM BKN014 OVC021 22/19 A2997 RMK AO2 SLP144 T02220194
KHTO - East Hampton, New York, USA
Distance from station: E 43mi, 69km
Updated: Sun, 09/27/2020 7:35 pm EDT
Overcast
Overcast
 Wind from SE
Wind: SE 7 mph , 11 km/h
Temperature: 70°F , 21°C
Dew Point: 68°F , 20°C
Humidity: 94%
Barometer: 29.96 inHg , 1014.6 hPa
Clouds: Overcast
Visibility: 10 miles , 16 km
Cloud details: Mostly cloudy 2600 ft
Mostly cloudy 3700 ft
Overcast 5500 ft
2020/09/27 23:35 KHTO 272335Z AUTO 13006KT 10SM BKN026 BKN037 OVC055 21/20 A2996 RMK AO2 T02050203
 
KOXC - Oxford/Waterbury, Connecticut, USA
Distance from station: N 43mi, 70km
Updated: Sun, 09/27/2020 6:51 pm EDT
Overcast
Overcast
 Wind from SSE
Wind: SSE 7 mph , 11 km/h
Temperature: 72°F , 22°C
Dew Point: 70°F , 21°C
Humidity: 94%
Barometer: 29.98 inHg , 1015.2 hPa
Clouds: Overcast
Visibility: 10 miles , 16 km
Cloud details: Overcast 800 ft
2020/09/27 22:51 KOXC 272251Z 15006KT 10SM OVC008 22/21 A2998 RMK AO2 SLP159 T02170206
KLGA - Nyc/La Guardia, New York, USA
Distance from station: W 44mi, 70km
Updated: Sun, 09/27/2020 6:51 pm EDT
Mostly cloudy
Mostly cloudy
 Wind from ESE
Wind: ESE 7 mph , 11 km/h
Temperature: 75°F , 24°C
Dew Point: 66°F , 19°C
Humidity: 74%
Barometer: 29.92 inHg , 1013.2 hPa
Clouds: Mostly cloudy
Visibility: 10 miles , 16 km
Cloud details: Mostly cloudy 3800 ft
Mostly cloudy 8500 ft
Mostly cloudy 20000 ft
2020/09/27 22:51 KLGA 272251Z 11006KT 10SM BKN038 BKN085 BKN200 24/19 A2992 RMK AO2 SLP133 T02440194 $
 
KSNC - Chester, Connecticut, USA
Distance from station: NE 47mi, 76km
Updated: Sun, 09/27/2020 7:15 pm EDT
Mostly cloudy
Mostly cloudy
 Wind from SE
Wind: SE 3 mph , 6 km/h
Temperature: 70°F , 21°C
Dew Point: 70°F , 21°C
Humidity: 100%
Barometer: 29.98 inHg , 1015.2 hPa
Clouds: Mostly cloudy
Visibility: 7 miles , 11 km
Cloud details: Mostly cloudy 300 ft
2020/09/27 23:15 KSNC 272315Z AUTO 13003KT 7SM BKN003 21/21 A2998 RMK AO2
KMMK - Meriden, Connecticut, USA
Distance from station: NNE 48mi, 77km
Updated: Sun, 09/27/2020 7:10 pm EDT
Overcast
Overcast
 Wind from SSE
Wind: SSE 6 mph , 9 km/h
Temperature: 73°F , 23°C
Dew Point: 66°F , 19°C
Humidity: 78%
Barometer: 29.96 inHg , 1014.6 hPa
Clouds: Overcast
Visibility: 10 miles , 16 km
Cloud details: Few Clouds 1300 ft
Partly cloudy 3200 ft
Overcast 4900 ft
2020/09/27 23:10 KMMK 272310Z AUTO 16005KT 10SM FEW013 SCT032 OVC049 23/19 A2996 RMK AO2 T02280194 TSNO
 
KNYC - Nyc/Central Park, New York, USA
Distance from station: W 48mi, 77km
Updated: Sun, 09/27/2020 7:30 pm EDT
Overcast
Overcast
 Wind from SE
Wind: SE 6 mph , 9 km/h
Temperature: 73°F , 23°C
Dew Point: 68°F , 20°C
Humidity: 83%
Barometer: 29.96 inHg , 1014.6 hPa
Clouds: Overcast
Visibility: 10 miles , 16 km
Cloud details: Partly cloudy 1600 ft
Overcast 4400 ft
2020/09/27 23:30 KNYC 272330Z AUTO 13005KT 10SM SCT016 OVC044 23/20 A2996 RMK AO2 T02330200 $